Time;durP1;ratioP1;P1;durP2;ratioP2;P2;SDS_P1;SDS_P2;PMS_P1;PMS_P2;Temp;Humidity;BMP_temperature;BMP_pressure;BME280_temperature;BME280_humidity;BME280_pressure;Samples;Min_cycle;Max_cycle;Signal;HPM_P1;HPM_P2
2024/01/29 00:01:42;;;;;;;76.00;47.28;;;1.30;99.90;;;;;;4975110;28;20474;-74
2024/01/29 00:04:08;;;;;;;69.10;43.15;;;1.20;99.90;;;;;;4975520;28;20030;-75
2024/01/29 00:06:34;;;;;;;57.08;36.97;;;1.20;99.90;;;;;;4975209;28;20035;-75
2024/01/29 00:09:00;;;;;;;54.13;35.25;;;1.20;99.90;;;;;;4975901;28;20130;-72
2024/01/29 00:11:26;;;;;;;58.97;35.88;;;1.30;99.90;;;;;;4975853;28;20066;-73
2024/01/29 00:13:54;;;;;;;51.63;31.25;;;1.30;99.90;;;;;;4975324;28;20478;-75
2024/01/29 00:16:20;;;;;;;44.00;25.95;;;1.30;99.90;;;;;;4958214;28;20041;-76
2024/01/29 00:19:01;;;;;;;;;;;;;;;;;;;;;
2024/01/29 00:21:33;;;;;;;42.22;24.05;;;1.20;99.90;;;;;;4957696;28;20023;-73
2024/01/29 00:24:00;;;;;;;42.55;26.13;;;1.30;99.90;;;;;;4975427;28;20042;-74
2024/01/29 00:26:27;;;;;;;46.40;28.23;;;1.40;99.90;;;;;;4975232;28;20105;-74
2024/01/29 00:28:56;;;;;;;41.10;24.98;;;1.40;99.90;;;;;;4975068;28;20376;-73
2024/01/29 00:31:23;;;;;;;44.08;29.05;;;1.50;99.90;;;;;;4975480;28;20027;-75
2024/01/29 00:33:51;;;;;;;47.47;29.25;;;1.60;99.90;;;;;;4973894;28;20085;-74
2024/01/29 00:36:16;;;;;;;74.90;44.15;;;1.70;99.90;;;;;;4974899;28;20475;-74
2024/01/29 00:38:43;;;;;;;114.22;61.67;;;1.70;99.90;;;;;;4974910;28;20037;-74
2024/01/29 00:41:12;;;;;;;89.10;49.45;;;1.70;99.90;;;;;;4958146;28;20394;-74
2024/01/29 00:43:37;;;;;;;85.30;50.78;;;1.80;99.90;;;;;;4975108;28;20026;-73
2024/01/29 00:46:03;;;;;;;75.10;47.08;;;1.90;99.90;;;;;;4974810;28;20027;-75
2024/01/29 00:48:29;;;;;;;79.53;49.80;;;2.00;99.90;;;;;;4974206;28;20495;-74
2024/01/29 00:50:55;;;;;;;76.03;47.47;;;2.00;99.90;;;;;;4974797;28;20118;-74
2024/01/29 00:53:22;;;;;;;84.78;53.47;;;2.00;99.90;;;;;;4974534;28;20035;-73
2024/01/29 00:55:49;;;;;;;81.95;45.05;;;2.00;99.90;;;;;;4974835;28;20019;-74
2024/01/29 00:58:17;;;;;;;65.32;38.92;;;1.90;99.90;;;;;;4973549;28;20023;-74
2024/01/29 01:00:43;;;;;;;59.65;33.95;;;1.90;99.90;;;;;;4974646;28;20031;-75
2024/01/29 01:03:09;;;;;;;54.30;36.58;;;2.00;99.90;;;;;;4974523;28;20030;-74
2024/01/29 01:05:35;;;;;;;58.70;36.35;;;2.10;99.90;;;;;;4974543;28;20202;-74
2024/01/29 01:08:01;;;;;;;62.25;36.30;;;2.00;99.90;;;;;;4957015;28;20398;-74
2024/01/29 01:10:27;;;;;;;68.60;41.00;;;1.90;99.90;;;;;;4973485;28;20497;-75
2024/01/29 01:12:53;;;;;;;70.88;41.08;;;1.90;99.90;;;;;;4974657;28;20045;-74
2024/01/29 01:15:20;;;;;;;69.47;42.45;;;1.80;99.90;;;;;;4976491;28;20390;-75
2024/01/29 01:17:46;;;;;;;55.53;35.88;;;1.80;99.90;;;;;;4974135;28;20037;-74
2024/01/29 01:20:12;;;;;;;51.88;32.05;;;1.80;99.90;;;;;;4975460;28;20053;-73
2024/01/29 01:22:38;;;;;;;50.50;28.90;;;1.70;99.90;;;;;;4974236;28;20113;-74
2024/01/29 01:25:05;;;;;;;49.72;29.48;;;1.70;99.90;;;;;;4973917;28;20023;-72
2024/01/29 01:27:38;;;;;;;44.20;28.33;;;1.70;99.90;;;;;;4973948;28;20038;-74
2024/01/29 01:30:07;;;;;;;42.55;27.33;;;1.60;99.90;;;;;;4940898;28;20035;-75
2024/01/29 01:32:33;;;;;;;47.38;27.75;;;1.60;99.90;;;;;;4973792;28;20106;-74
2024/01/29 01:34:58;;;;;;;49.28;28.08;;;1.50;99.90;;;;;;4974200;28;20117;-74
2024/01/29 01:37:24;;;;;;;48.05;26.35;;;1.50;99.90;;;;;;4973459;28;20018;-75
2024/01/29 01:39:52;;;;;;;45.00;27.08;;;1.50;99.90;;;;;;4973820;28;20077;-73
2024/01/29 01:42:19;;;;;;;44.28;26.95;;;1.50;99.90;;;;;;4973498;28;20046;-75
2024/01/29 01:44:48;;;;;;;46.50;27.75;;;1.50;99.90;;;;;;4973361;28;20430;-73
2024/01/29 01:47:14;;;;;;;58.70;33.47;;;1.50;99.90;;;;;;4973509;28;20062;-73
2024/01/29 01:49:41;;;;;;;57.25;35.80;;;1.40;99.90;;;;;;4955248;28;20109;-73
2024/01/29 01:52:08;;;;;;;52.33;33.03;;;1.30;99.90;;;;;;4956309;28;20371;-72
2024/01/29 01:54:36;;;;;;;61.83;35.72;;;1.30;99.90;;;;;;4973381;28;20023;-74
2024/01/29 01:57:03;;;;;;;55.65;34.60;;;1.30;99.90;;;;;;4971035;28;20037;-74
2024/01/29 01:59:29;;;;;;;53.22;32.88;;;1.30;99.90;;;;;;4939972;28;20030;-74
2024/01/29 02:01:55;;;;;;;58.40;36.63;;;1.30;99.90;;;;;;4956082;28;20022;-74
2024/01/29 02:04:21;;;;;;;60.17;35.67;;;1.30;99.90;;;;;;4973450;28;20034;-73
2024/01/29 02:06:51;;;;;;;62.63;37.80;;;1.20;99.90;;;;;;4972828;28;20506;-74
2024/01/29 02:09:25;;;;;;;65.28;37.30;;;1.20;99.90;;;;;;4973203;28;20121;-74
2024/01/29 02:11:51;;;;;;;55.08;36.22;;;1.20;99.90;;;;;;4943881;28;20058;-74
2024/01/29 02:14:18;;;;;;;59.63;37.28;;;1.20;99.90;;;;;;4960336;28;20058;-74
2024/01/29 02:16:45;;;;;;;60.72;36.97;;;1.30;99.90;;;;;;4972442;28;20115;-74
2024/01/29 02:19:17;;;;;;;57.38;34.92;;;1.30;99.90;;;;;;4972644;28;20471;-73
2024/01/29 02:21:46;;;;;;;62.33;35.22;;;1.20;99.90;;;;;;4972278;28;20046;-74
2024/01/29 02:24:15;;;;;;;54.63;33.72;;;1.20;99.90;;;;;;4973186;28;20066;-74
2024/01/29 02:26:46;;;;;;;54.83;34.35;;;1.20;99.90;;;;;;4973478;28;20105;-74
2024/01/29 02:29:12;;;;;;;59.38;34.90;;;1.00;99.90;;;;;;4955262;28;20047;-74
2024/01/29 02:31:38;;;;;;;63.60;37.42;;;1.00;99.90;;;;;;4973098;28;20073;-74
2024/01/29 02:34:04;;;;;;;50.47;32.78;;;1.00;99.90;;;;;;4973065;28;20035;-74
2024/01/29 02:36:33;;;;;;;60.50;37.70;;;1.00;99.90;;;;;;4973465;28;20026;-74
2024/01/29 02:38:59;;;;;;;63.22;35.03;;;1.00;99.90;;;;;;4972385;28;20050;-74
2024/01/29 02:41:25;;;;;;;73.10;46.28;;;1.00;99.90;;;;;;4973029;28;20467;-74
2024/01/29 02:43:51;;;;;;;73.95;43.47;;;0.90;99.90;;;;;;4955592;28;21346;-74
2024/01/29 02:46:18;;;;;;;62.10;37.17;;;0.80;99.90;;;;;;4972747;28;20023;-74
2024/01/29 02:48:44;;;;;;;57.70;34.67;;;0.70;99.90;;;;;;4972251;28;20129;-74
2024/01/29 02:51:10;;;;;;;54.33;36.83;;;0.80;99.90;;;;;;4972624;28;20518;-74
2024/01/29 02:53:36;;;;;;;59.13;35.67;;;0.70;99.90;;;;;;4968386;28;20114;-74
2024/01/29 02:56:02;;;;;;;61.55;37.38;;;0.80;99.90;;;;;;4972936;28;20489;-74
2024/01/29 02:58:29;;;;;;;57.78;36.95;;;0.80;99.90;;;;;;4972405;28;20066;-74
2024/01/29 03:00:55;;;;;;;66.88;42.15;;;0.70;99.90;;;;;;4972509;28;20110;-74
2024/01/29 03:03:21;;;;;;;59.50;37.85;;;0.80;99.90;;;;;;4955539;28;20042;-74
2024/01/29 03:05:47;;;;;;;52.97;35.97;;;0.80;99.90;;;;;;4972935;28;20027;-74
2024/01/29 03:08:13;;;;;;;109.65;61.33;;;0.80;99.90;;;;;;4972554;28;20379;-74
2024/01/29 03:10:39;;;;;;;97.97;52.58;;;0.80;99.90;;;;;;4972615;28;20039;-77
2024/01/29 03:13:05;;;;;;;68.53;40.25;;;0.80;99.90;;;;;;4939482;28;20034;-73
2024/01/29 03:15:31;;;;;;;62.42;39.47;;;0.80;99.90;;;;;;4973059;28;20031;-73
2024/01/29 03:17:57;;;;;;;56.58;36.20;;;0.80;99.90;;;;;;4972184;28;20027;-75
2024/01/29 03:20:23;;;;;;;54.40;34.50;;;0.70;99.90;;;;;;4972439;28;20086;-76
2024/01/29 03:22:56;;;;;;;58.30;34.50;;;0.70;99.90;;;;;;4972471;28;20019;-73
2024/01/29 03:25:24;;;;;;;;;;;0.60;99.90;;;;;;4939834;28;20031;-73
2024/01/29 03:27:53;;;;;;;51.90;32.60;;;0.60;99.90;;;;;;4972235;28;19910;-74
2024/01/29 03:30:19;;;;;;;53.08;32.53;;;0.60;99.90;;;;;;4972306;28;20110;-76
2024/01/29 03:32:55;;;;;;;68.43;43.00;;;0.60;99.90;;;;;;4956134;28;20109;-74
2024/01/29 03:35:24;;;;;;;71.25;43.08;;;0.60;99.90;;;;;;4958442;28;20026;-74
2024/01/29 03:37:50;;;;;;;58.00;36.30;;;0.60;99.90;;;;;;4976112;28;20045;-75
2024/01/29 03:40:16;;;;;;;74.50;45.78;;;0.60;99.90;;;;;;4975806;28;20065;-73
2024/01/29 03:42:42;;;;;;;81.47;48.50;;;0.40;99.90;;;;;;4975819;28;20037;-74
2024/01/29 03:45:08;;;;;;;68.72;45.25;;;0.50;99.90;;;;;;4975794;28;20019;-76
2024/01/29 03:47:34;;;;;;;118.97;74.30;;;0.50;99.90;;;;;;4975611;28;20490;-72
2024/01/29 03:50:00;;;;;;;83.45;55.72;;;0.50;99.90;;;;;;4975778;28;20046;-77
2024/01/29 03:52:28;;;;;;;86.35;54.35;;;0.50;99.90;;;;;;4975317;28;20105;-75
2024/01/29 03:54:54;;;;;;;69.45;47.03;;;0.40;99.90;;;;;;4975713;28;20089;-74
2024/01/29 03:57:22;;;;;;;75.75;49.70;;;0.40;99.90;;;;;;4975756;28;20035;-78
2024/01/29 03:59:54;;;;;;;72.68;47.00;;;0.40;99.90;;;;;;4975274;28;20031;-74
2024/01/29 04:02:20;;;;;;;71.38;46.55;;;0.50;99.90;;;;;;4975305;28;20479;-74
2024/01/29 04:04:48;;;;;;;69.28;41.83;;;0.50;99.90;;;;;;4975041;28;20035;-74
2024/01/29 04:07:15;;;;;;;71.35;45.13;;;0.50;99.90;;;;;;4975203;28;20037;-74
2024/01/29 04:09:40;;;;;;;65.10;43.80;;;0.50;99.90;;;;;;4975112;28;20053;-75
2024/01/29 04:12:07;;;;;;;64.85;44.03;;;0.50;99.90;;;;;;4975411;28;20022;-74
2024/01/29 04:14:33;;;;;;;76.35;44.95;;;0.50;99.90;;;;;;4973306;28;20065;-74
2024/01/29 04:17:06;;;;;;;77.75;44.83;;;0.50;99.90;;;;;;4964867;28;20395;-75
2024/01/29 04:19:34;;;;;;;65.30;41.03;;;0.40;99.90;;;;;;4974682;28;20039;-75
2024/01/29 04:22:00;;;;;;;64.70;39.05;;;0.40;99.90;;;;;;4975156;28;20086;-73
2024/01/29 04:24:28;;;;;;;70.47;41.90;;;0.30;99.90;;;;;;4974837;28;20103;-74
2024/01/29 04:26:55;;;;;;;61.67;41.33;;;0.30;99.90;;;;;;4975286;28;20030;-75
2024/01/29 04:29:20;;;;;;;59.90;39.75;;;0.30;99.90;;;;;;4957841;28;20561;-74
2024/01/29 04:31:52;;;;;;;62.13;39.45;;;0.20;99.90;;;;;;4975252;28;20031;-74
2024/01/29 04:34:18;;;;;;;66.57;40.10;;;0.20;99.90;;;;;;4974097;28;20054;-75
2024/01/29 04:36:45;;;;;;;59.20;39.60;;;0.20;99.90;;;;;;4974875;28;20427;-74
2024/01/29 04:39:11;;;;;;;65.75;40.90;;;0.20;99.90;;;;;;4957643;28;20077;-72
2024/01/29 04:41:37;;;;;;;65.32;39.42;;;0.20;99.90;;;;;;4994403;23;20050;-74
2024/01/29 04:44:05;;;;;;;63.58;40.20;;;0.10;99.90;;;;;;4993043;28;20390;-74
2024/01/29 04:46:34;;;;;;;65.30;39.33;;;0.10;99.90;;;;;;4990171;28;20425;-75
2024/01/29 04:49:00;;;;;;;68.63;40.15;;;0.10;99.90;;;;;;4957345;28;20043;-75
2024/01/29 04:51:27;;;;;;;68.38;41.50;;;0.10;99.90;;;;;;4984980;28;20029;-74
2024/01/29 04:53:53;;;;;;;64.03;38.88;;;0.10;99.90;;;;;;4990875;23;20061;-78
2024/01/29 04:56:21;;;;;;;63.00;40.67;;;0.10;99.90;;;;;;4985207;28;20422;-76
2024/01/29 04:58:54;;;;;;;67.20;39.83;;;0.10;99.90;;;;;;4948916;28;20038;-75
2024/01/29 05:01:30;;;;;;;59.33;40.33;;;0.10;99.90;;;;;;4977147;28;20026;-75
2024/01/29 05:04:06;;;;;;;64.18;42.00;;;0.00;99.90;;;;;;4959950;28;20036;-75
2024/01/29 05:06:32;;;;;;;70.15;42.50;;;0.10;99.90;;;;;;4960259;28;20481;-74
2024/01/29 05:09:00;;;;;;;66.53;42.50;;;0.00;99.90;;;;;;4993627;28;20108;-74
2024/01/29 05:11:29;;;;;;;70.00;44.58;;;0.10;99.90;;;;;;4993545;28;20061;-76
2024/01/29 05:13:55;;;;;;;69.65;43.85;;;0.10;99.90;;;;;;4976141;28;20072;-74
2024/01/29 05:16:21;;;;;;;72.82;43.70;;;0.10;99.90;;;;;;4993231;28;20105;-75
2024/01/29 05:18:49;;;;;;;77.10;42.10;;;0.10;99.90;;;;;;4982145;28;20034;-75
2024/01/29 05:21:17;;;;;;;68.95;43.63;;;0.10;99.90;;;;;;4993332;28;20022;-75
2024/01/29 05:23:50;;;;;;;75.05;42.83;;;0.10;99.90;;;;;;4979893;28;20038;-75
2024/01/29 05:26:16;;;;;;;69.60;42.28;;;0.20;99.90;;;;;;4954352;28;20019;-74
2024/01/29 05:28:43;;;;;;;68.78;42.53;;;0.20;99.90;;;;;;4964977;28;20054;-73
2024/01/29 05:31:08;;;;;;;77.00;42.08;;;0.20;99.90;;;;;;4993865;28;20073;-75
2024/01/29 05:33:34;;;;;;;70.13;41.42;;;0.20;99.90;;;;;;4993327;28;20030;-75
2024/01/29 05:36:02;;;;;;;63.90;42.20;;;0.20;99.90;;;;;;4993253;28;20090;-75
2024/01/29 05:38:35;;;;;;;65.43;40.85;;;0.20;99.90;;;;;;4980129;28;20549;-76
2024/01/29 05:41:01;;;;;;;63.78;40.10;;;0.10;99.90;;;;;;4993183;28;20026;-76
2024/01/29 05:43:30;;;;;;;76.93;41.67;;;0.10;99.90;;;;;;4960160;28;20038;-75
2024/01/29 05:45:58;;;;;;;63.20;40.50;;;0.10;99.90;;;;;;4992815;28;20076;-75
2024/01/29 05:48:26;;;;;;;71.10;42.92;;;0.10;99.90;;;;;;4991319;28;20034;-76
2024/01/29 05:50:52;;;;;;;70.18;44.08;;;0.20;99.90;;;;;;4992807;28;20484;-76
2024/01/29 05:53:21;;;;;;;64.97;39.30;;;0.20;99.90;;;;;;4992927;28;20492;-76
2024/01/29 05:55:49;;;;;;;76.03;51.38;;;0.20;99.90;;;;;;4975480;28;20022;-79
2024/01/29 05:58:18;;;;;;;95.60;64.15;;;0.30;99.90;;;;;;4974971;28;20081;-75
2024/01/29 06:00:44;;;;;;;85.07;53.70;;;0.30;99.90;;;;;;4961376;23;20046;-75
2024/01/29 06:03:12;;;;;;;84.45;51.38;;;0.40;99.90;;;;;;4973264;28;20027;-75
2024/01/29 06:05:41;;;;;;;86.13;48.92;;;0.30;99.90;;;;;;4940448;28;20030;-75
2024/01/29 06:08:07;;;;;;;87.90;53.08;;;0.40;99.90;;;;;;4973248;28;20420;-75
2024/01/29 06:10:33;;;;;;;85.78;51.45;;;0.40;99.90;;;;;;4962014;28;20031;-75
2024/01/29 06:12:59;;;;;;;85.50;52.97;;;0.40;99.90;;;;;;4981746;23;20512;-75
2024/01/29 06:15:25;;;;;;;94.50;55.05;;;0.40;99.90;;;;;;4954071;29;20031;-75
2024/01/29 06:17:59;;;;;;;88.18;55.13;;;0.30;99.90;;;;;;4953829;29;20416;-75
2024/01/29 06:20:37;;;;;;;100.93;57.83;;;0.30;99.90;;;;;;4939510;28;20491;-74
2024/01/29 06:23:09;;;;;;;116.90;64.30;;;0.20;99.90;;;;;;4956651;28;20027;-75
2024/01/29 06:25:35;;;;;;;101.85;62.50;;;0.30;99.90;;;;;;4972521;28;20173;-75
2024/01/29 06:28:01;;;;;;;102.63;59.38;;;0.30;99.90;;;;;;4943161;28;20558;-74
2024/01/29 06:30:27;;;;;;;103.90;63.90;;;0.40;99.90;;;;;;4972775;28;20066;-76
2024/01/29 06:33:03;;;;;;;101.53;63.35;;;0.50;99.90;;;;;;4960682;28;20121;-76
2024/01/29 06:35:38;;;;;;;85.85;60.50;;;0.60;99.90;;;;;;4973039;28;20035;-76
2024/01/29 06:38:07;;;;;;;83.65;57.22;;;0.60;99.90;;;;;;4940621;28;20039;-76
2024/01/29 06:40:33;;;;;;;80.25;54.80;;;0.60;99.90;;;;;;4972850;28;20019;-76
2024/01/29 06:43:01;;;;;;;91.07;58.53;;;0.60;99.90;;;;;;4939393;28;20117;-76
2024/01/29 06:45:30;;;;;;;90.25;63.30;;;0.60;99.90;;;;;;4973082;28;20378;-76
2024/01/29 06:47:59;;;;;;;109.50;71.00;;;0.70;99.90;;;;;;4973127;28;20026;-76
2024/01/29 06:50:27;;;;;;;96.75;66.35;;;0.80;99.90;;;;;;4972260;28;20023;-76
2024/01/29 06:53:00;;;;;;;90.95;60.95;;;0.80;99.90;;;;;;4972806;28;20030;-75
2024/01/29 06:55:40;;;;;;;91.10;63.00;;;0.80;99.90;;;;;;4972535;28;20023;-77
2024/01/29 06:58:15;;;;;;;92.20;63.72;;;0.90;99.90;;;;;;4916909;29;20078;-76
2024/01/29 07:00:43;;;;;;;93.65;64.10;;;0.90;99.90;;;;;;4912803;29;20385;-77
2024/01/29 07:03:09;;;;;;;105.32;65.97;;;1.10;99.90;;;;;;4884097;29;20035;-77
2024/01/29 07:05:39;;;;;;;100.22;69.63;;;1.20;99.90;;;;;;4932174;29;20079;-76
2024/01/29 07:08:05;;;;;;;98.88;69.72;;;1.20;99.90;;;;;;4933662;29;20040;-76
2024/01/29 07:10:37;;;;;;;107.13;70.40;;;1.20;99.90;;;;;;4936216;29;20564;-75
2024/01/29 07:13:05;;;;;;;96.10;67.97;;;1.30;99.90;;;;;;4921564;29;20043;-74
2024/01/29 07:15:33;;;;;;;106.00;75.00;;;1.40;99.90;;;;;;4925679;29;20040;-76
2024/01/29 07:17:59;;;;;;;107.57;72.07;;;1.30;99.90;;;;;;4933066;29;20110;-75
2024/01/29 07:20:29;;;;;;;120.38;84.00;;;1.50;99.90;;;;;;4947954;23;20145;-77
2024/01/29 07:22:56;;;;;;;135.57;94.10;;;1.40;99.90;;;;;;4955633;29;20031;-76
2024/01/29 07:25:22;;;;;;;145.55;102.15;;;1.50;99.90;;;;;;4939004;29;20027;-80
2024/01/29 07:27:48;;;;;;;132.70;87.90;;;1.40;99.90;;;;;;4935031;29;20059;-80
2024/01/29 07:30:15;;;;;;;135.38;86.25;;;1.40;99.90;;;;;;4939813;29;20043;-76
2024/01/29 07:32:50;;;;;;;132.15;87.40;;;1.50;99.90;;;;;;4957394;29;20102;-76
2024/01/29 07:35:21;;;;;;;113.90;79.47;;;1.70;99.90;;;;;;4944943;29;20122;-75
2024/01/29 07:37:47;;;;;;;121.75;79.55;;;1.80;99.90;;;;;;4980614;23;20055;-76
2024/01/29 07:40:14;;;;;;;147.52;98.85;;;1.60;99.90;;;;;;4956227;29;20029;-77
2024/01/29 07:42:40;;;;;;;151.25;102.68;;;1.60;99.90;;;;;;4936842;29;20031;-74
2024/01/29 07:45:09;;;;;;;118.55;82.00;;;1.70;99.90;;;;;;4940070;29;20031;-74
2024/01/29 07:47:37;;;;;;;105.22;68.97;;;1.70;99.90;;;;;;4934083;29;20027;-76
2024/01/29 07:50:14;;;;;;;113.32;72.50;;;1.70;99.90;;;;;;4949129;29;20483;-74
2024/01/29 07:52:40;;;;;;;103.32;65.70;;;1.80;99.90;;;;;;4927160;29;20408;-75
2024/01/29 07:55:08;;;;;;;89.68;56.50;;;1.80;99.90;;;;;;4939291;29;20502;-73
2024/01/29 07:57:39;;;;;;;75.30;51.00;;;1.80;99.90;;;;;;4956301;29;20051;-76
2024/01/29 08:00:06;;;;;;;69.93;46.22;;;1.80;99.90;;;;;;4956017;29;20356;-76
2024/01/29 08:02:32;;;;;;;70.13;48.78;;;1.90;99.90;;;;;;4956623;29;20427;-75
2024/01/29 08:04:58;;;;;;;70.93;48.35;;;1.90;99.90;;;;;;4938697;29;20062;-75
2024/01/29 08:07:26;;;;;;;64.25;43.58;;;2.10;99.90;;;;;;4956297;29;20075;-75
2024/01/29 08:09:52;;;;;;;57.22;35.90;;;2.20;99.90;;;;;;4938446;29;20035;-75
2024/01/29 08:12:20;;;;;;;53.35;34.90;;;2.20;99.90;;;;;;4954540;29;20043;-76
2024/01/29 08:14:54;;;;;;;52.80;33.17;;;2.30;99.90;;;;;;4954708;29;20031;-75
2024/01/29 08:17:20;;;;;;;50.55;34.45;;;2.50;99.90;;;;;;4956246;29;20019;-75
2024/01/29 08:19:56;;;;;;;57.25;32.50;;;2.50;99.90;;;;;;4937810;29;20476;-79
2024/01/29 08:22:27;;;;;;;54.90;31.02;;;2.50;99.90;;;;;;4938455;29;20031;-75
2024/01/29 08:24:53;;;;;;;41.38;29.70;;;2.60;99.90;;;;;;4943915;29;20061;-75
2024/01/29 08:27:22;;;;;;;40.05;28.65;;;2.80;99.90;;;;;;4955874;29;20027;-74
2024/01/29 08:29:56;;;;;;;50.28;31.73;;;2.90;99.90;;;;;;4938250;29;20035;-74
2024/01/29 08:32:23;;;;;;;46.63;30.27;;;3.00;99.90;;;;;;4955675;29;20035;-74
2024/01/29 08:35:00;;;;;;;47.05;28.67;;;3.10;99.90;;;;;;4955502;29;20027;-75
2024/01/29 08:37:28;;;;;;;46.03;32.30;;;3.30;99.90;;;;;;4937822;29;20050;-73
2024/01/29 08:40:02;;;;;;;42.30;29.20;;;3.30;99.90;;;;;;4938600;29;20095;-75
2024/01/29 08:42:30;;;;;;;49.05;32.15;;;3.30;99.90;;;;;;4922496;29;20035;-74
2024/01/29 08:45:00;;;;;;;62.00;39.22;;;3.40;99.90;;;;;;4937777;29;20027;-75
2024/01/29 08:47:31;;;;;;;64.35;40.05;;;3.50;99.90;;;;;;4938032;29;20067;-73
2024/01/29 08:50:10;;;;;;;57.30;36.65;;;3.60;99.90;;;;;;4955355;29;20035;-75
2024/01/29 08:52:42;;;;;;;71.95;43.88;;;3.80;99.90;;;;;;5021255;23;20042;-75
2024/01/29 08:55:11;;;;;;;66.32;43.15;;;3.90;99.90;;;;;;4940348;28;20130;-74
2024/01/29 08:57:37;;;;;;;63.45;41.08;;;3.90;99.90;;;;;;4974726;28;20054;-75
2024/01/29 09:00:09;;;;;;;66.07;44.38;;;3.90;99.90;;;;;;4938979;28;20026;-75
2024/01/29 09:02:37;;;;;;;52.20;37.47;;;4.00;99.90;;;;;;4947624;28;20026;-75
2024/01/29 09:05:03;;;;;;;54.70;37.13;;;4.20;99.90;;;;;;4957188;28;20027;-75
2024/01/29 09:07:29;;;;;;;51.83;34.60;;;4.20;99.90;;;;;;4941103;28;20035;-74
2024/01/29 09:10:02;;;;;;;52.05;35.80;;;4.20;99.90;;;;;;4974315;28;20402;-75
2024/01/29 09:12:36;;;;;;;47.70;33.15;;;4.40;99.90;;;;;;4957234;28;20030;-77
2024/01/29 09:15:06;;;;;;;46.25;33.38;;;4.50;99.90;;;;;;4965532;28;20058;-75
2024/01/29 09:17:34;;;;;;;48.97;34.40;;;4.60;99.90;;;;;;4940988;28;20031;-75
2024/01/29 09:20:20;;;;;;;49.92;35.78;;;4.60;99.90;;;;;;4943680;28;20058;-76
2024/01/29 09:22:48;;;;;;;48.00;33.33;;;4.80;99.90;;;;;;4944002;28;20041;-76
2024/01/29 09:25:17;;;;;;;57.60;32.97;;;5.00;99.90;;;;;;4940916;28;20035;-74
2024/01/29 09:27:43;;;;;;;52.08;33.80;;;5.00;99.90;;;;;;4974226;28;20033;-78
2024/01/29 09:30:09;;;;;;;49.58;29.65;;;5.10;99.90;;;;;;4974022;28;20479;-75
2024/01/29 09:32:37;;;;;;;47.78;27.08;;;5.10;99.90;;;;;;4969544;28;20450;-78
2024/01/29 09:35:04;;;;;;;41.38;26.42;;;5.00;99.90;;;;;;4981133;28;20065;-74
2024/01/29 09:37:32;;;;;;;39.22;27.25;;;5.00;99.90;;;;;;4956069;28;20078;-76
2024/01/29 09:39:58;;;;;;;44.58;28.90;;;5.10;99.90;;;;;;4977019;28;20034;-74
2024/01/29 09:42:27;;;;;;;46.08;29.65;;;5.20;99.90;;;;;;4982068;28;20058;-74
2024/01/29 09:44:54;;;;;;;46.30;29.27;;;5.20;99.90;;;;;;4974368;28;20069;-73
2024/01/29 09:47:27;;;;;;;43.88;25.88;;;5.30;99.90;;;;;;4952814;28;20088;-76
2024/01/29 09:49:53;;;;;;;;;;;5.30;99.90;;;;;;4966083;28;20038;-75
2024/01/29 09:52:27;;;;;;;39.80;23.33;;;5.50;99.90;;;;;;4931080;28;19921;-75
2024/01/29 09:54:54;;;;;;;38.25;22.85;;;5.40;99.90;;;;;;4911529;29;20066;-73
2024/01/29 09:57:28;;;;;;;39.45;25.10;;;5.50;99.90;;;;;;4918761;28;20055;-74
2024/01/29 09:59:56;;;;;;;33.67;20.08;;;5.50;99.90;;;;;;4954533;28;20028;-76
2024/01/29 10:02:23;;;;;;;30.30;20.83;;;5.50;99.90;;;;;;4921696;29;20064;-74
2024/01/29 10:04:49;;;;;;;35.60;21.38;;;5.30;99.90;;;;;;4955652;28;20034;-74
2024/01/29 10:07:15;;;;;;;35.85;21.27;;;5.30;99.90;;;;;;4942551;28;20832;-77
2024/01/29 10:09:41;;;;;;;40.00;24.48;;;5.30;99.90;;;;;;4923749;28;20405;-75
2024/01/29 10:12:07;;;;;;;41.65;22.58;;;5.20;99.90;;;;;;4944217;28;20026;-73
2024/01/29 10:14:33;;;;;;;39.22;22.90;;;5.20;99.90;;;;;;4937433;29;20495;-74
2024/01/29 10:16:59;;;;;;;46.58;23.25;;;5.30;99.90;;;;;;4934890;29;20031;-75
2024/01/29 10:19:43;;;;;;;40.70;24.05;;;5.40;99.90;;;;;;4932961;28;20122;-74
2024/01/29 10:22:17;;;;;;;39.13;23.50;;;5.50;99.90;;;;;;4945543;28;20042;-74
2024/01/29 10:25:05;;;;;;;40.83;24.73;;;5.50;99.90;;;;;;4907891;29;20032;-74
2024/01/29 10:27:31;;;;;;;39.38;24.15;;;5.70;99.90;;;;;;4915925;29;20395;-74
2024/01/29 10:29:57;;;;;;;49.72;29.02;;;5.70;99.90;;;;;;4946189;28;20039;-74
2024/01/29 10:32:26;;;;;;;40.10;25.30;;;5.70;99.90;;;;;;4948965;28;20035;-74
2024/01/29 10:35:00;;;;;;;44.67;27.52;;;5.80;99.90;;;;;;4953981;28;20051;-76
2024/01/29 10:37:26;;;;;;;43.85;30.17;;;5.70;99.90;;;;;;4920878;29;20037;-74
2024/01/29 10:40:06;;;;;;;48.88;29.38;;;5.60;99.90;;;;;;4927168;29;20070;-74
2024/01/29 10:42:38;;;;;;;42.50;27.42;;;5.60;99.90;;;;;;4923936;28;20461;-73
2024/01/29 10:45:10;;;;;;;52.45;29.27;;;5.70;99.90;;;;;;4936021;28;20027;-74
2024/01/29 10:47:52;;;;;;;48.65;28.50;;;5.60;99.90;;;;;;4945151;29;20027;-76
2024/01/29 10:50:25;;;;;;;47.35;29.17;;;5.60;99.90;;;;;;4942358;29;20136;-74
2024/01/29 10:52:54;;;;;;;39.47;25.20;;;5.50;99.90;;;;;;4957412;28;20027;-73
2024/01/29 10:55:36;;;;;;;40.33;25.13;;;5.50;99.90;;;;;;4977362;28;20043;-75
2024/01/29 10:58:22;;;;;;;44.38;24.35;;;5.50;99.90;;;;;;4969232;28;20030;-75
2024/01/29 11:00:52;;;;;;;38.15;21.92;;;5.60;99.90;;;;;;4976637;28;20062;-74
2024/01/29 11:03:26;;;;;;;39.15;23.70;;;5.70;99.90;;;;;;4944474;28;20081;-74
2024/01/29 11:06:26;;;;;;;43.10;27.38;;;5.80;99.90;;;;;;4975417;28;20050;-74
2024/01/29 11:09:02;;;;;;;37.35;26.00;;;5.90;99.90;;;;;;4931595;28;20047;-78
2024/01/29 11:11:43;;;;;;;52.35;29.13;;;5.90;99.90;;;;;;4944373;28;20023;-73
2024/01/29 11:14:11;;;;;;;46.35;29.55;;;6.00;99.90;;;;;;4976949;28;20117;-74
2024/01/29 11:16:40;;;;;;;46.45;28.08;;;6.00;99.90;;;;;;4958093;28;20094;-74
2024/01/29 11:19:08;;;;;;;50.10;28.35;;;6.10;99.90;;;;;;4976693;28;20038;-74
2024/01/29 11:21:44;;;;;;;45.30;27.77;;;6.20;99.90;;;;;;4976817;28;20549;-74
2024/01/29 11:24:11;;;;;;;39.30;24.35;;;6.40;99.90;;;;;;4959058;28;20050;-74
2024/01/29 11:26:38;;;;;;;46.95;24.08;;;6.40;99.90;;;;;;4974349;28;20031;-75
2024/01/29 11:29:16;;;;;;;42.83;23.48;;;6.50;99.90;;;;;;4971651;28;20510;-75
2024/01/29 11:31:51;;;;;;;37.03;22.90;;;6.60;99.90;;;;;;4959448;28;20434;-75
2024/01/29 11:34:27;;;;;;;35.17;20.63;;;6.60;99.90;;;;;;4976442;28;20118;-73
2024/01/29 11:36:55;;;;;;;25.88;13.27;;;6.80;99.90;;;;;;4943264;28;20046;-78
2024/01/29 11:39:24;;;;;;;24.65;13.32;;;6.70;99.90;;;;;;4943140;28;20027;-76
2024/01/29 11:41:59;;;;;;;26.45;13.82;;;6.70;99.90;;;;;;4943070;28;20509;-74
2024/01/29 11:44:29;;;;;;;25.65;12.32;;;6.80;99.90;;;;;;4964746;28;20081;-75
2024/01/29 11:46:56;;;;;;;22.70;10.93;;;6.80;99.90;;;;;;4943174;28;20038;-74
2024/01/29 11:49:29;;;;;;;18.80;9.00;;;6.90;99.90;;;;;;4976518;28;20045;-73
2024/01/29 11:52:07;;;;;;;16.42;9.98;;;7.00;99.90;;;;;;4943048;28;20034;-73
2024/01/29 11:54:33;;;;;;;16.70;8.32;;;7.00;99.90;;;;;;4977565;28;20054;-73
2024/01/29 11:57:02;;;;;;;10.57;6.35;;;7.10;99.90;;;;;;4942862;28;20046;-73
2024/01/29 11:59:28;;;;;;;14.73;7.90;;;7.10;99.10;;;;;;4939498;29;20038;-73
2024/01/29 12:01:54;;;;;;;22.95;8.75;;;7.20;99.10;;;;;;4974236;28;20030;-75
2024/01/29 12:04:21;;;;;;;18.05;8.65;;;7.20;99.80;;;;;;4965570;28;20031;-76
2024/01/29 12:06:54;;;;;;;14.85;7.40;;;7.20;99.10;;;;;;4962653;28;20371;-74
2024/01/29 12:09:20;;;;;;;17.17;7.13;;;7.30;99.90;;;;;;4975370;28;20043;-74
2024/01/29 12:11:46;;;;;;;15.32;6.38;;;7.20;99.70;;;;;;4941862;28;20022;-76
2024/01/29 12:14:15;;;;;;;13.13;6.53;;;7.30;99.90;;;;;;4971860;28;20027;-74
2024/01/29 12:16:44;;;;;;;13.73;7.18;;;7.40;99.90;;;;;;4948047;28;20058;-75
2024/01/29 12:19:10;;;;;;;15.80;7.53;;;7.40;99.90;;;;;;4942439;28;20399;-74
2024/01/29 12:21:41;;;;;;;16.60;8.07;;;7.50;99.90;;;;;;4958122;28;20033;-74
2024/01/29 12:24:08;;;;;;;19.27;8.60;;;7.50;99.90;;;;;;4975074;28;20039;-76
2024/01/29 12:26:37;;;;;;;17.73;8.63;;;7.40;99.50;;;;;;4974221;28;20118;-74
2024/01/29 12:29:04;;;;;;;19.13;9.10;;;7.50;99.90;;;;;;4939468;28;20031;-74
2024/01/29 12:31:30;;;;;;;28.92;10.93;;;7.50;99.30;;;;;;4965921;28;20031;-74
2024/01/29 12:33:56;;;;;;;19.35;8.93;;;7.70;99.00;;;;;;4953206;28;20035;-74
2024/01/29 12:36:29;;;;;;;20.23;9.77;;;7.60;98.50;;;;;;4938589;29;20031;-75
2024/01/29 12:38:57;;;;;;;15.23;7.80;;;7.60;98.90;;;;;;4942499;28;20051;-73
2024/01/29 12:41:23;;;;;;;13.40;6.35;;;7.70;99.70;;;;;;4974466;28;20031;-73
2024/01/29 12:44:14;;;;;;;23.23;7.13;;;7.60;98.70;;;;;;4947847;28;20019;-77
2024/01/29 12:46:57;;;;;;;12.63;6.70;;;7.60;99.90;;;;;;4933202;28;20042;-74